Terminal Aerodrome Forecast
Issued by NWS

Home | Current Version | Previous Version | Text Only | Print | Product List | Glossary On
Versions: 1 2 3 4 5 6 7 8 9 10 11 12 13
000
FTUS43 KILX 292321
TAFBMI
TAF
KBMI 292321Z 3000/3024 22006KT P6SM VCSH BKN060
     FM300700 18004KT 4SM BR SCT025 OVC035
     FM301000 18004KT 4SM BR BKN025=

USA.gov is the U.S. government's official web portal to all federal, state and local government web resources and services.